Time;durP1;ratioP1;P1;durP2;ratioP2;P2;SDS_P1;SDS_P2;PMS_P1;PMS_P2;Temp;Humidity;BMP_temperature;BMP_pressure;BME280_temperature;BME280_humidity;BME280_pressure;Samples;Min_cycle;Max_cycle;Signal;HPM_P1;HPM_P2
2023/09/24 00:02:19;;;;;;;;;10.75;9.75;;;;;15.59;70.09;101919.38;5020711;28;47905;-66
2023/09/24 00:04:46;;;;;;;;;11.00;10.00;;;;;15.57;69.77;101917.59;5038797;28;45390;-66
2023/09/24 00:07:12;;;;;;;;;11.50;10.50;;;;;15.59;69.92;101922.91;5039110;28;45384;-66
2023/09/24 00:09:37;;;;;;;;;12.50;12.50;;;;;15.49;69.90;101908.91;5038882;28;45269;-66
2023/09/24 00:12:03;;;;;;;;;9.75;8.50;;;;;15.54;69.79;101923.06;5038898;28;46306;-66
2023/09/24 00:14:30;;;;;;;;;8.75;8.50;;;;;15.46;69.97;101914.38;5038793;28;45854;-66
2023/09/24 00:16:58;;;;;;;;;9.25;8.50;;;;;15.54;70.13;101922.22;5035467;28;45340;-66
2023/09/24 00:19:24;;;;;;;;;12.25;9.75;;;;;15.50;70.10;101918.75;5040578;28;45575;-66
2023/09/24 00:21:50;;;;;;;;;8.25;7.75;;;;;15.45;70.02;101917.13;5038719;28;46121;-66
2023/09/24 00:24:18;;;;;;;;;9.75;7.75;;;;;15.41;70.18;101910.09;5020724;28;46052;-66
2023/09/24 00:26:46;;;;;;;;;11.50;8.50;;;;;15.42;70.30;101922.59;5038854;28;45253;-66
2023/09/24 00:29:13;;;;;;;;;8.00;7.25;;;;;15.36;70.32;101912.94;5047522;28;45577;-66
2023/09/24 00:31:38;;;;;;;;;8.00;4.00;;;;;15.42;70.28;101930.69;5047099;28;45442;-66
2023/09/24 00:34:04;;;;;;;;;10.00;7.00;;;;;15.34;70.39;101922.88;5038280;28;45370;-66
2023/09/24 00:36:29;;;;;;;;;8.75;6.25;;;;;15.38;70.38;101932.59;5021023;28;45608;-66
2023/09/24 00:38:54;;;;;;;;;9.00;7.25;;;;;15.36;70.51;101938.03;5033866;28;45730;-66
2023/09/24 00:41:20;;;;;;;;;8.75;8.75;;;;;15.32;70.56;101938.19;5050601;28;49355;-66
2023/09/24 00:43:45;;;;;;;;;7.25;7.25;;;;;15.24;70.83;101929.50;5052041;28;45451;-66
2023/09/24 00:46:11;;;;;;;;;10.50;7.50;;;;;15.33;70.69;101953.41;5044016;28;45324;-66
2023/09/24 00:48:38;;;;;;;;;8.25;7.50;;;;;15.31;71.09;101944.50;5041663;28;45380;-66
2023/09/24 00:51:18;;;;;;;;;9.75;9.75;;;;;15.29;71.00;101949.94;5048091;28;46010;-66
2023/09/24 00:53:45;;;;;;;;;8.25;8.25;;;;;15.16;70.88;101933.31;5047260;28;45406;-66
2023/09/24 00:56:12;;;;;;;;;10.25;8.75;;;;;15.10;71.15;101922.75;5042345;28;45481;-66
2023/09/24 00:58:39;;;;;;;;;10.00;8.75;;;;;15.21;71.13;101945.75;5051670;28;45324;-66
2023/09/24 01:01:04;;;;;;;;;11.00;8.50;;;;;15.16;71.26;101938.69;5038289;28;46208;-66
2023/09/24 01:03:30;;;;;;;;;8.75;8.50;;;;;15.17;71.14;101934.19;5046940;28;45261;-66
2023/09/24 01:05:56;;;;;;;;;10.25;8.00;;;;;15.14;71.34;101934.31;5051522;28;45376;-66
2023/09/24 01:08:23;;;;;;;;;11.25;8.75;;;;;15.14;71.07;101943.25;5038517;28;45408;-66
2023/09/24 01:10:49;;;;;;;;;9.25;6.25;;;;;15.09;70.96;101931.75;5020334;28;48582;-66
2023/09/24 01:13:19;;;;;;;;;7.25;6.50;;;;;15.12;71.19;101942.41;5036755;28;45836;-66
2023/09/24 01:15:48;;;;;;;;;6.75;6.00;;;;;15.15;71.12;101947.69;5051654;28;45470;-66
2023/09/24 01:18:14;;;;;;;;;7.75;7.00;;;;;15.07;71.20;101930.94;5048602;28;45395;-66
2023/09/24 01:20:40;;;;;;;;;7.50;7.00;;;;;15.15;71.17;101944.09;5020073;28;47100;-66
2023/09/24 01:23:07;;;;;;;;;9.00;8.00;;;;;15.13;71.30;101941.47;5037686;28;45747;-66
2023/09/24 01:25:34;;;;;;;;;5.25;4.00;;;;;15.08;71.13;101940.72;5042231;28;45332;-66
2023/09/24 01:28:05;;;;;;;;;8.25;6.50;;;;;15.00;71.46;101926.66;5036910;28;45570;-66
2023/09/24 01:30:31;;;;;;;;;8.00;7.00;;;;;15.09;71.31;101944.31;5053913;28;47073;-66
2023/09/24 01:33:00;;;;;;;;;8.75;7.75;;;;;15.02;71.35;101940.97;5037871;28;45576;-66
2023/09/24 01:35:27;;;;;;;;;7.75;6.00;;;;;15.03;71.54;101948.06;5037974;28;45407;-66
2023/09/24 01:37:55;;;;;;;;;8.50;7.50;;;;;15.05;71.24;101953.41;5037970;28;45469;-66
2023/09/24 01:40:21;;;;;;;;;9.00;8.00;;;;;14.94;71.34;101941.19;5039296;28;45462;-66
2023/09/24 01:42:47;;;;;;;;;9.75;8.25;;;;;14.94;71.30;101946.56;5045333;28;45585;-66
2023/09/24 01:45:13;;;;;;;;;10.00;7.75;;;;;15.00;71.27;101961.59;5052238;28;45364;-66
2023/09/24 01:47:38;;;;;;;;;13.75;10.00;;;;;14.99;71.38;101959.88;5040908;28;45280;-66
2023/09/24 01:50:06;;;;;;;;;12.00;9.75;;;;;14.91;71.59;101949.34;5054983;28;45296;-66
2023/09/24 01:52:34;;;;;;;;;10.00;7.50;;;;;14.95;71.82;101956.41;5052188;28;45270;-66
2023/09/24 01:54:59;;;;;;;;;13.25;10.75;;;;;14.93;71.67;101952.84;5048479;28;45525;-66
2023/09/24 01:57:24;;;;;;;;;10.00;9.50;;;;;14.94;71.89;101951.06;5039528;28;45426;-66
2023/09/24 01:59:50;;;;;;;;;9.00;8.00;;;;;14.94;71.71;101957.31;5026525;28;55943;-66
2023/09/24 02:02:15;;;;;;;;;9.50;9.50;;;;;14.76;71.77;101931.88;5045288;28;48278;-66
2023/09/24 02:04:41;;;;;;;;;8.00;8.00;;;;;14.92;71.95;101950.25;5039762;28;45546;-66
2023/09/24 02:07:08;;;;;;;;;9.25;9.00;;;;;14.91;72.05;101951.16;5040752;28;45386;-66
2023/09/24 02:09:35;;;;;;;;;10.00;7.50;;;;;14.85;71.96;101937.91;5023167;28;45470;-66
2023/09/24 02:12:00;;;;;;;;;8.25;5.50;;;;;14.93;72.11;101954.66;5040944;28;45660;-66
2023/09/24 02:14:26;;;;;;;;;11.00;8.50;;;;;14.96;72.09;101957.28;5045343;28;45442;-66
2023/09/24 02:16:51;;;;;;;;;11.50;11.50;;;;;14.98;71.91;101960.78;5051667;28;45257;-66
2023/09/24 02:19:17;;;;;;;;;9.25;9.25;;;;;14.92;71.95;101947.56;5043657;28;45305;-66
2023/09/24 02:21:42;;;;;;;;;11.50;10.75;;;;;14.92;71.81;101947.56;5050808;28;45726;-66
2023/09/24 02:24:08;;;;;;;;;10.50;10.00;;;;;14.87;71.93;101934.25;5043626;28;45522;-66
2023/09/24 02:26:34;;;;;;;;;8.75;8.75;;;;;14.82;72.01;101918.25;5049438;28;45550;-66
2023/09/24 02:28:59;;;;;;;;;11.00;11.00;;;;;14.96;71.97;101946.50;5034517;28;48026;-66
2023/09/24 02:31:26;;;;;;;;;9.00;8.25;;;;;15.02;71.99;101959.78;5050488;28;45471;-66
2023/09/24 02:33:51;;;;;;;;;13.00;11.50;;;;;14.98;71.88;101952.72;5040325;28;45538;-66
2023/09/24 02:36:17;;;;;;;;;12.25;11.00;;;;;15.00;71.79;101954.44;5040494;28;45474;-66
2023/09/24 02:38:43;;;;;;;;;11.50;10.50;;;;;15.02;71.72;101957.09;5040412;28;45423;-66
2023/09/24 02:41:10;;;;;;;;;14.50;13.25;;;;;14.94;71.75;101943.00;5040380;28;45661;-66
2023/09/24 02:43:37;;;;;;;;;13.50;11.75;;;;;14.92;71.59;101944.88;5042284;28;45400;-66
2023/09/24 02:46:03;;;;;;;;;10.50;10.25;;;;;14.82;71.79;101925.44;5042824;28;45822;-66
2023/09/24 02:48:29;;;;;;;;;13.25;10.75;;;;;14.91;71.83;101946.66;5041085;28;47191;-66
2023/09/24 02:50:54;;;;;;;;;12.75;12.00;;;;;14.95;71.77;101951.03;5050660;28;45383;-66
2023/09/24 02:53:20;;;;;;;;;15.75;13.75;;;;;14.87;71.72;101936.94;5038530;28;45434;-66
2023/09/24 02:55:46;;;;;;;;;17.75;12.25;;;;;14.91;71.80;101948.47;5040212;28;45428;-66
2023/09/24 02:58:12;;;;;;;;;12.50;12.00;;;;;14.97;71.99;101961.72;5040075;28;45317;-66
2023/09/24 03:00:41;;;;;;;;;12.50;11.75;;;;;14.88;71.87;101956.63;5040062;28;45602;-66
2023/09/24 03:03:09;;;;;;;;;12.00;9.75;;;;;14.93;71.91;101963.59;5039733;28;45402;-66
2023/09/24 03:05:35;;;;;;;;;9.25;9.25;;;;;14.90;72.08;101965.50;5022011;28;45661;-66
2023/09/24 03:08:01;;;;;;;;;12.25;9.75;;;;;14.87;72.02;101968.28;5039979;28;46367;-66
2023/09/24 03:10:28;;;;;;;;;9.25;9.25;;;;;14.82;71.99;101963.09;5040076;28;45674;-66
2023/09/24 03:12:54;;;;;;;;;10.25;9.00;;;;;14.74;71.87;101955.25;5039834;28;45328;-66
2023/09/24 03:15:23;;;;;;;;;9.75;8.50;;;;;14.78;72.06;101967.69;5053543;28;45585;-66
2023/09/24 03:17:49;;;;;;;;;9.50;8.75;;;;;14.77;71.65;101973.97;5041183;28;48001;-66
2023/09/24 03:20:16;;;;;;;;;12.25;9.50;;;;;14.68;71.77;101954.56;5048329;28;45544;-66
2023/09/24 03:22:53;;;;;;;;;10.75;8.75;;;;;14.66;71.89;101969.84;5044959;28;45498;-66
2023/09/24 03:25:21;;;;;;;;;13.25;10.50;;;;;14.61;71.83;101964.59;5046398;28;45844;-66
2023/09/24 03:27:48;;;;;;;;;10.00;9.25;;;;;14.56;71.76;101958.44;5025154;28;47345;-66
2023/09/24 03:30:14;;;;;;;;;8.75;8.75;;;;;14.57;71.90;101974.53;5057272;28;45693;-66
2023/09/24 03:32:43;;;;;;;;;11.50;10.00;;;;;14.60;72.01;101981.63;5039667;28;45661;-66
2023/09/24 03:35:10;;;;;;;;;12.75;12.25;;;;;14.54;71.91;101971.06;5039430;28;45513;-66
2023/09/24 03:37:40;;;;;;;;;10.50;9.50;;;;;14.45;72.38;101969.53;5039583;28;46464;-66
2023/09/24 03:40:09;;;;;;;;;12.50;10.75;;;;;14.52;72.34;101978.28;5036662;28;45844;-66
2023/09/24 03:42:35;;;;;;;;;10.75;9.50;;;;;14.41;72.12;101966.03;5053320;28;45447;-65
2023/09/24 03:45:01;;;;;;;;;11.50;9.00;;;;;14.50;72.25;101980.13;5049397;28;45239;-65
2023/09/24 03:47:26;;;;;;;;;13.75;12.75;;;;;14.43;72.43;101969.56;5050060;28;46540;-66
2023/09/24 03:49:52;;;;;;;;;13.25;11.00;;;;;14.50;72.26;101986.41;5052789;28;45313;-66
2023/09/24 03:52:17;;;;;;;;;8.75;8.50;;;;;14.43;72.46;101972.25;5025963;28;45377;-66
2023/09/24 03:54:42;;;;;;;;;11.00;9.50;;;;;14.49;72.44;101976.56;5058706;28;45630;-66
2023/09/24 03:57:07;;;;;;;;;14.00;10.25;;;;;14.42;72.55;101961.56;5046254;28;50570;-66
2023/09/24 03:59:36;;;;;;;;;14.00;12.25;;;;;14.46;72.69;101961.41;5027083;28;45742;-66
2023/09/24 04:02:06;;;;;;;;;12.75;10.00;;;;;14.47;72.90;101973.03;5038574;28;45414;-66
2023/09/24 04:04:33;;;;;;;;;8.50;8.50;;;;;14.50;72.58;101991.78;5038801;28;45502;-66
2023/09/24 04:06:58;;;;;;;;;9.75;9.25;;;;;14.44;72.71;101982.06;5038485;28;45423;-66
2023/09/24 04:09:23;;;;;;;;;12.25;11.25;;;;;14.43;72.68;101988.38;5038983;28;45491;-66
2023/09/24 04:11:48;;;;;;;;;11.00;10.25;;;;;14.49;72.75;101994.50;5039378;28;45454;-66
2023/09/24 04:14:14;;;;;;;;;14.75;12.25;;;;;14.48;72.56;101998.09;5045342;28;56278;-66
2023/09/24 04:16:41;;;;;;;;;9.25;9.00;;;;;14.42;72.54;101988.41;5051985;28;45374;-66
2023/09/24 04:19:07;;;;;;;;;14.50;11.25;;;;;14.43;72.39;101995.53;5040091;28;45438;-66
2023/09/24 04:21:32;;;;;;;;;13.50;11.50;;;;;14.40;72.55;101988.47;5050273;28;45376;-66
2023/09/24 04:23:58;;;;;;;;;10.50;8.50;;;;;14.42;72.67;101991.09;5038674;28;45248;-66
2023/09/24 04:26:24;;;;;;;;;8.00;8.00;;;;;14.39;72.52;101994.75;5038762;28;46665;-66
2023/09/24 04:28:51;;;;;;;;;10.50;9.75;;;;;14.33;72.60;101989.53;5027193;28;45349;-66
2023/09/24 04:31:17;;;;;;;;;11.25;11.25;;;;;14.28;72.33;101975.34;5050719;28;45367;-66
2023/09/24 04:33:42;;;;;;;;;8.25;8.25;;;;;14.31;72.56;101991.38;5038398;28;45649;-65
2023/09/24 04:36:09;;;;;;;;;10.25;9.50;;;;;14.29;72.94;101993.25;5038780;28;45422;-66
2023/09/24 04:38:36;;;;;;;;;9.75;9.75;;;;;14.27;72.60;101992.41;5038606;28;45503;-66
2023/09/24 04:41:01;;;;;;;;;13.75;11.25;;;;;14.19;72.80;101979.19;5038864;28;45670;-66
2023/09/24 04:43:26;;;;;;;;;15.00;11.00;;;;;14.02;72.41;101947.44;5047222;28;45411;-65
2023/09/24 04:45:52;;;;;;;;;10.50;10.25;;;;;14.18;72.79;101971.16;5038406;28;51998;-66
2023/09/24 04:48:17;;;;;;;;;8.25;6.50;;;;;14.11;72.77;101966.91;5038632;28;54447;-66
2023/09/24 04:50:42;;;;;;;;;11.00;11.00;;;;;14.12;72.73;101977.59;5050824;28;45363;-66
2023/09/24 04:53:08;;;;;;;;;13.00;9.00;;;;;14.07;72.68;101961.63;5052561;28;45526;-65
2023/09/24 04:55:33;;;;;;;;;8.25;8.25;;;;;14.16;72.75;101984.63;5051078;28;46152;-66
2023/09/24 04:58:00;;;;;;;;;10.50;9.00;;;;;14.20;72.35;101985.44;5038321;28;45264;-66
2023/09/24 05:00:25;;;;;;;;;8.00;7.00;;;;;14.15;72.65;101993.63;5020575;28;45345;-66
2023/09/24 05:02:51;;;;;;;;;9.75;9.00;;;;;14.02;72.85;101968.03;5020178;28;45368;-66
2023/09/24 05:05:16;;;;;;;;;12.50;10.25;;;;;14.09;72.84;101986.63;5036861;28;46131;-65
2023/09/24 05:07:42;;;;;;;;;13.00;10.00;;;;;13.99;72.60;101968.13;5036797;28;45315;-66
2023/09/24 05:10:08;;;;;;;;;11.75;9.25;;;;;14.10;72.79;101982.16;5038517;28;45457;-66
2023/09/24 05:12:35;;;;;;;;;12.00;9.00;;;;;14.03;72.83;101978.75;5038254;28;45474;-66
2023/09/24 05:15:00;;;;;;;;;8.25;8.25;;;;;14.05;72.84;101989.44;5041671;28;47253;-66
2023/09/24 05:17:26;;;;;;;;;10.00;10.00;;;;;14.06;72.91;101984.00;5047245;28;45338;-66
2023/09/24 05:19:52;;;;;;;;;9.25;9.25;;;;;13.96;72.93;101974.44;5028882;28;45465;-66
2023/09/24 05:22:17;;;;;;;;;10.75;9.50;;;;;13.99;72.58;101990.47;5044628;28;45487;-65
2023/09/24 05:24:42;;;;;;;;;12.50;9.75;;;;;13.97;73.06;101995.00;5034267;28;50703;-66
2023/09/24 05:27:07;;;;;;;;;6.50;5.50;;;;;13.92;73.06;101982.66;5023151;28;49662;-66
2023/09/24 05:29:34;;;;;;;;;15.25;10.75;;;;;13.90;73.28;101985.38;5040437;28;45386;-66
2023/09/24 05:32:01;;;;;;;;;11.50;8.75;;;;;13.94;72.74;101992.41;5046044;28;45332;-66
2023/09/24 05:34:27;;;;;;;;;8.75;8.75;;;;;13.82;73.21;101974.81;5023398;28;47429;-66
2023/09/24 05:36:52;;;;;;;;;9.00;8.00;;;;;13.93;73.25;101998.69;5023364;28;46531;-65
2023/09/24 05:39:18;;;;;;;;;8.50;7.75;;;;;13.86;73.31;101994.41;5032560;28;45410;-65
2023/09/24 05:41:44;;;;;;;;;9.50;9.50;;;;;13.78;73.25;101970.47;5059293;28;45444;-66
2023/09/24 05:44:09;;;;;;;;;9.50;8.50;;;;;13.83;73.20;101987.31;5056012;28;46796;-65
2023/09/24 05:46:34;;;;;;;;;13.25;11.75;;;;;13.51;73.19;101934.47;5058824;28;45390;-65
2023/09/24 05:49:00;;;;;;;;;9.50;8.75;;;;;13.88;73.36;102000.59;5048302;28;45353;-65
2023/09/24 05:51:25;;;;;;;;;12.50;9.25;;;;;13.84;73.37;101997.13;5047406;28;45414;-65
2023/09/24 05:53:52;;;;;;;;;9.00;9.00;;;;;13.83;73.56;101991.78;5046978;28;46088;-66
2023/09/24 05:56:18;;;;;;;;;8.00;6.50;;;;;13.84;73.42;102002.50;5057292;28;45713;-65
2023/09/24 05:58:43;;;;;;;;;11.50;11.00;;;;;13.80;73.58;101995.47;5041189;28;45472;-65
2023/09/24 06:01:15;;;;;;;;;10.50;10.00;;;;;13.78;73.50;101997.31;5041158;28;45287;-65
2023/09/24 06:03:41;;;;;;;;;10.25;9.00;;;;;13.77;73.62;101997.34;5040658;28;46128;-65
2023/09/24 06:06:10;;;;;;;;;9.00;8.00;;;;;13.71;73.58;101987.63;5039344;28;45497;-66
2023/09/24 06:08:37;;;;;;;;;12.00;8.00;;;;;13.64;73.75;101976.16;5041317;28;45388;-65
2023/09/24 06:11:03;;;;;;;;;10.25;8.75;;;;;13.85;73.78;102011.44;5022858;28;45558;-65
2023/09/24 06:13:28;;;;;;;;;9.50;7.75;;;;;13.80;73.70;102003.50;5027507;28;47752;-65
2023/09/24 06:16:01;;;;;;;;;8.25;8.25;;;;;13.85;73.61;102016.81;5059032;28;45454;-65
2023/09/24 06:18:27;;;;;;;;;11.75;11.75;;;;;13.78;73.69;102015.19;5041111;28;45342;-65
2023/09/24 06:20:52;;;;;;;;;9.75;8.50;;;;;13.82;73.74;102025.81;5040740;28;45427;-66
2023/09/24 06:23:17;;;;;;;;;11.25;8.50;;;;;13.76;73.89;102011.66;5040323;28;45514;-66
2023/09/24 06:25:43;;;;;;;;;8.00;8.00;;;;;13.76;73.68;102019.72;5040430;28;45332;-65
2023/09/24 06:28:11;;;;;;;;;7.25;7.00;;;;;13.73;73.78;102011.75;5052443;28;45596;-66
2023/09/24 06:30:38;;;;;;;;;10.50;9.00;;;;;13.78;73.89;102033.97;5057664;28;45462;-65
2023/09/24 06:33:05;;;;;;;;;6.50;6.25;;;;;13.84;73.87;102041.88;5057902;28;45300;-65
2023/09/24 06:35:33;;;;;;;;;7.50;7.00;;;;;13.80;73.84;102041.09;5043741;28;45764;-65
2023/09/24 06:37:59;;;;;;;;;10.50;8.00;;;;;13.75;73.88;102034.03;5040643;28;45525;-65
2023/09/24 06:40:24;;;;;;;;;11.50;8.75;;;;;13.85;73.57;102055.25;5040188;28;45381;-65
2023/09/24 06:42:49;;;;;;;;;8.25;7.50;;;;;13.70;73.58;102027.00;5044811;28;45466;-65
2023/09/24 06:45:15;;;;;;;;;13.25;8.50;;;;;13.85;74.05;102054.38;5025958;28;45711;-65
2023/09/24 06:47:41;;;;;;;;;6.00;6.00;;;;;13.78;73.93;102034.88;5040093;28;45627;-65
2023/09/24 06:50:07;;;;;;;;;8.25;7.75;;;;;13.88;74.08;102060.56;5023145;28;45383;-65
2023/09/24 06:52:32;;;;;;;;;7.25;7.25;;;;;13.79;73.86;102038.44;5021407;28;47853;-65
2023/09/24 06:54:59;;;;;;;;;11.00;9.00;;;;;13.82;73.83;102041.91;5052289;28;45428;-65
2023/09/24 06:57:24;;;;;;;;;9.75;8.50;;;;;13.77;73.81;102037.59;5040344;28;45402;-64
2023/09/24 06:59:50;;;;;;;;;10.25;9.00;;;;;13.85;74.28;102055.25;5039918;28;45503;-65
2023/09/24 07:02:16;;;;;;;;;10.00;7.75;;;;;13.56;74.11;101996.94;5037485;28;46052;-65
2023/09/24 07:04:42;;;;;;;;;10.00;8.75;;;;;13.80;74.10;102042.84;5040026;28;45273;-65
2023/09/24 07:07:08;;;;;;;;;6.25;6.25;;;;;13.79;74.19;102044.66;5049673;28;45488;-65
2023/09/24 07:09:34;;;;;;;;;11.00;7.75;;;;;13.79;74.23;102041.13;5039965;28;45400;-65
2023/09/24 07:11:59;;;;;;;;;6.75;6.75;;;;;13.79;74.23;102041.13;5043513;28;46512;-66
2023/09/24 07:14:25;;;;;;;;;6.00;6.00;;;;;13.82;74.36;102039.22;5039815;28;45537;-66
2023/09/24 07:16:50;;;;;;;;;10.75;8.75;;;;;13.78;74.45;102034.88;5035322;28;45438;-66
2023/09/24 07:19:16;;;;;;;;;8.50;7.25;;;;;13.88;74.38;102057.88;5048713;28;45504;-66
2023/09/24 07:21:42;;;;;;;;;10.50;9.00;;;;;13.90;74.08;102057.84;5042371;28;45981;-66
2023/09/24 07:24:08;;;;;;;;;8.00;7.00;;;;;13.82;74.15;102049.09;5014769;28;45443;-66
2023/09/24 07:26:33;;;;;;;;;5.00;5.00;;;;;13.87;74.13;102055.22;5052091;28;45393;-66
2023/09/24 07:29:00;;;;;;;;;7.75;6.00;;;;;13.94;74.38;102061.31;5034819;28;46189;-66
2023/09/24 07:31:26;;;;;;;;;7.75;7.50;;;;;13.94;74.20;102050.59;5040004;28;47927;-65
2023/09/24 07:33:53;;;;;;;;;6.25;6.00;;;;;13.97;74.20;102050.50;5044281;28;45619;-66
2023/09/24 07:36:20;;;;;;;;;6.00;6.00;;;;;13.91;74.20;102040.78;5039183;28;45406;-65
2023/09/24 07:38:45;;;;;;;;;7.75;7.00;;;;;13.91;73.92;102035.44;5051025;28;45431;-65
2023/09/24 07:41:11;;;;;;;;;5.00;4.75;;;;;14.04;74.27;102046.75;5034918;28;53566;-68
2023/09/24 07:43:38;;;;;;;;;7.50;6.50;;;;;14.06;74.39;102042.19;5053537;28;45474;-67
2023/09/24 07:46:15;;;;;;;;;5.00;5.00;;;;;13.90;74.12;102009.53;5043392;28;45546;-67
2023/09/24 07:48:42;;;;;;;;;6.25;5.00;;;;;14.17;74.14;102048.19;5021920;28;45597;-65
2023/09/24 07:51:07;;;;;;;;;5.50;5.50;;;;;14.17;74.03;102032.06;5044570;28;46183;-66
2023/09/24 07:53:33;;;;;;;;;7.00;5.75;;;;;14.17;73.83;102034.75;5053349;28;45518;-67
2023/09/24 07:56:03;;;;;;;;;6.00;6.00;;;;;14.30;73.87;102051.44;5041457;28;45401;-67
2023/09/24 07:58:30;;;;;;;;;6.00;6.00;;;;;14.15;73.48;102023.19;5038393;28;45440;-67
2023/09/24 08:01:00;;;;;;;;;8.00;5.50;;;;;14.24;73.93;102033.66;5040863;28;47527;-67
2023/09/24 08:03:26;;;;;;;;;5.25;4.50;;;;;14.17;74.20;102015.09;5051921;28;45610;-68
2023/09/24 08:05:52;;;;;;;;;5.75;5.75;;;;;14.30;73.74;102029.94;5039126;28;45670;-65
2023/09/24 08:08:18;;;;;;;;;7.00;5.50;;;;;14.40;73.66;102046.66;5020760;28;45456;-64
2023/09/24 08:10:44;;;;;;;;;5.00;5.00;;;;;14.50;74.06;102056.25;5038963;28;45295;-64
2023/09/24 08:13:09;;;;;;;;;8.00;7.00;;;;;14.56;73.60;102058.75;5042824;28;45479;-64
2023/09/24 08:15:35;;;;;;;;;8.25;6.25;;;;;14.59;73.87;102064.06;5039000;28;45246;-64
2023/09/24 08:18:01;;;;;;;;;6.75;6.00;;;;;14.54;73.42;102043.59;5043843;28;45225;-65
2023/09/24 08:20:26;;;;;;;;;4.75;4.75;;;;;14.50;73.38;102031.16;5058826;28;46456;-63
2023/09/24 08:22:52;;;;;;;;;5.75;5.75;;;;;14.73;73.45;102060.09;5058730;28;45239;-63
2023/09/24 08:25:17;;;;;;;;;6.25;5.00;;;;;14.78;73.27;102059.06;5058988;28;45311;-64
2023/09/24 08:27:42;;;;;;;;;7.25;7.25;;;;;14.83;73.39;102050.84;5040063;28;45575;-63
2023/09/24 08:30:08;;;;;;;;;8.00;6.25;;;;;14.68;73.22;102025.28;5046169;28;45530;-63
2023/09/24 08:32:33;;;;;;;;;5.75;4.50;;;;;14.95;73.02;102057.66;5021981;28;45439;-63
2023/09/24 08:34:59;;;;;;;;;7.00;5.00;;;;;14.89;73.06;102034.53;5038736;28;45351;-64
2023/09/24 08:37:24;;;;;;;;;5.25;4.50;;;;;15.07;72.84;102059.09;5039058;28;52881;-64
2023/09/24 08:39:49;;;;;;;;;6.00;6.00;;;;;15.01;72.66;102042.22;5038183;28;46216;-64
2023/09/24 08:42:19;;;;;;;;;6.75;6.00;;;;;15.17;72.92;102066.00;5037815;28;47198;-65
2023/09/24 08:45:04;;;;;;;;;6.50;6.25;;;;;15.16;73.08;102050.78;5051107;28;45391;-65
2023/09/24 08:47:32;;;;;;;;;6.00;4.75;;;;;15.09;72.34;102022.31;5015836;28;48018;-64
2023/09/24 08:50:03;;;;;;;;;4.00;4.00;;;;;15.28;72.35;102041.44;5048329;28;45752;-65
2023/09/24 08:52:31;;;;;;;;;5.00;5.00;;;;;15.19;72.34;102015.72;5024227;28;45519;-65
2023/09/24 08:54:59;;;;;;;;;7.25;4.00;;;;;15.42;72.36;102038.31;5029668;28;45610;-65
2023/09/24 08:57:24;;;;;;;;;6.00;6.00;;;;;15.54;72.05;102049.56;5034118;28;45738;-64
2023/09/24 08:59:50;;;;;;;;;7.00;6.00;;;;;15.41;72.12;102015.03;5023809;28;46091;-64
2023/09/24 09:02:16;;;;;;;;;3.75;3.75;;;;;15.50;71.53;102012.03;5041032;28;45546;-64
2023/09/24 09:04:49;;;;;;;;;7.00;5.00;;;;;15.75;71.50;102044.38;5049101;28;45486;-65
2023/09/24 09:07:16;;;;;;;;;6.25;4.00;;;;;15.69;71.14;102020.38;5026049;28;45590;-66
2023/09/24 09:09:51;;;;;;;;;5.00;5.00;;;;;15.81;71.57;102033.47;5052207;28;45502;-66
2023/09/24 09:12:20;;;;;;;;;2.00;1.00;;;;;15.90;70.89;102035.84;5055450;28;45825;-66
2023/09/24 09:14:46;;;;;;;;;4.75;4.00;;;;;15.98;71.00;102035.56;5041742;28;45265;-66
2023/09/24 09:17:11;;;;;;;;;5.75;5.75;;;;;16.06;70.85;102030.81;5025872;28;45533;-66
2023/09/24 09:19:56;;;;;;;;;4.25;4.25;;;;;16.09;70.66;102019.06;5049811;28;45272;-65
2023/09/24 09:22:23;;;;;;;;;5.25;4.00;;;;;16.07;70.47;102002.03;5049187;28;45596;-65
2023/09/24 09:25:01;;;;;;;;;4.75;4.75;;;;;16.32;70.30;102034.38;5032880;28;45448;-65
2023/09/24 09:27:33;;;;;;;;;3.00;3.00;;;;;16.35;70.17;102028.88;5043796;28;45478;-65
2023/09/24 09:30:19;;;;;;;;;4.75;4.75;;;;;16.42;70.29;102016.06;5044338;28;46145;-65
2023/09/24 09:32:46;;;;;;;;;5.50;3.50;;;;;16.54;70.41;102030.91;5051235;28;45643;-65
2023/09/24 09:35:14;;;;;;;;;3.00;3.00;;;;;16.56;70.33;102020.97;5046232;28;45487;-64
2023/09/24 09:37:41;;;;;;;;;4.00;3.00;;;;;16.61;69.25;102013.59;5050693;28;45424;-67
2023/09/24 09:40:07;;;;;;;;;2.75;2.00;;;;;16.75;69.87;102029.22;5040900;28;45721;-65
2023/09/24 09:42:33;;;;;;;;;1.25;1.00;;;;;16.64;68.86;101997.31;5025456;28;46188;-65
2023/09/24 09:45:09;;;;;;;;;3.50;3.50;;;;;16.65;68.32;101983.72;5051909;28;45513;-65
2023/09/24 09:48:04;;;;;;;;;3.00;3.00;;;;;16.92;68.11;102012.44;5051560;28;45538;-64
2023/09/24 09:50:41;;;;;;;;;4.00;4.00;;;;;16.96;67.40;102009.56;5049839;28;46474;-64
2023/09/24 09:53:09;;;;;;;;;3.50;2.00;;;;;17.00;67.18;102000.41;5032520;28;46149;-64
2023/09/24 09:55:38;;;;;;;;;4.50;4.50;;;;;16.94;66.61;101981.78;5023903;28;45559;-64
2023/09/24 09:58:05;;;;;;;;;1.50;1.50;;;;;17.08;66.06;101999.25;5044909;28;45561;-65
2023/09/24 10:00:30;;;;;;;;;4.25;4.00;;;;;17.11;66.37;102002.69;5045235;28;45754;-64
2023/09/24 10:02:56;;;;;;;;;3.50;3.00;;;;;17.19;65.81;102008.66;5038213;28;45885;-65
2023/09/24 10:05:22;;;;;;;;;5.25;4.25;;;;;17.17;65.56;101998.84;5039090;28;45669;-64
2023/09/24 10:07:48;;;;;;;;;4.25;2.75;;;;;17.26;65.56;102000.28;5038858;28;45565;-64
2023/09/24 10:10:31;;;;;;;;;4.25;3.25;;;;;17.32;65.66;102008.16;5056296;28;45709;-66
2023/09/24 10:12:58;;;;;;;;;2.25;2.00;;;;;17.36;65.17;101990.91;5043251;28;45455;-65
2023/09/24 10:15:25;;;;;;;;;2.25;2.25;;;;;17.44;65.50;101994.19;5046264;28;45395;-64
2023/09/24 10:18:15;;;;;;;;;4.75;3.00;;;;;17.53;64.66;101987.50;5050779;28;45509;-64
2023/09/24 10:20:49;;;;;;;;;1.50;1.50;;;;;17.58;63.94;101983.66;5029126;28;45641;-65
2023/09/24 10:23:29;;;;;;;;;4.00;2.00;;;;;17.64;63.58;101982.53;5046203;28;45344;-64
2023/09/24 10:26:04;;;;;;;;;2.50;2.00;;;;;17.69;62.88;101969.72;5058270;28;45363;-64
2023/09/24 10:28:50;;;;;;;;;2.50;2.25;;;;;17.78;63.08;101963.91;5052738;28;46336;-64
2023/09/24 10:31:17;;;;;;;;;2.00;1.75;;;;;17.85;62.55;101966.34;5050232;28;45356;-65
2023/09/24 10:33:56;;;;;;;;;3.00;3.00;;;;;17.92;62.72;101962.47;5040433;28;45417;-65
2023/09/24 10:36:31;;;;;;;;;3.00;3.00;;;;;17.97;61.40;101949.63;5021233;28;45623;-64
2023/09/24 10:39:03;;;;;;;;;2.00;2.00;;;;;18.06;61.33;101965.44;5045737;28;45804;-64
2023/09/24 10:41:29;;;;;;;;;3.50;2.25;;;;;18.11;61.23;101954.44;5041938;28;45522;-64
2023/09/24 10:44:22;;;;;;;;;1.75;1.75;;;;;18.15;61.17;101964.16;5052847;28;45766;-64
2023/09/24 10:46:47;;;;;;;;;2.75;2.00;;;;;18.15;60.37;101956.03;5050366;28;45729;-65
2023/09/24 10:49:21;;;;;;;;;3.00;3.00;;;;;18.17;60.48;101943.34;5059346;28;45448;-64
2023/09/24 10:51:47;;;;;;;;;2.50;2.50;;;;;18.18;59.67;101938.84;5038177;28;45519;-65
2023/09/24 10:54:16;;;;;;;;;1.50;1.00;;;;;18.24;60.33;101930.41;5051302;28;45514;-64
2023/09/24 10:56:48;;;;;;;;;2.25;2.25;;;;;18.43;59.91;101958.38;5053759;28;46043;-64
2023/09/24 10:59:16;;;;;;;;;3.25;2.25;;;;;18.44;59.90;101946.63;5045355;28;45462;-65
2023/09/24 11:01:43;;;;;;;;;4.25;2.00;;;;;18.54;59.78;101940.75;5042757;28;46358;-64
2023/09/24 11:04:09;;;;;;;;;1.50;1.50;;;;;18.55;58.94;101932.59;5028430;28;45703;-64
2023/09/24 11:06:34;;;;;;;;;3.00;3.00;;;;;18.58;59.06;101920.75;5046742;28;45639;-65
2023/09/24 11:09:21;;;;;;;;;3.50;1.75;;;;;18.47;58.72;101889.69;5035220;28;45624;-67
2023/09/24 11:11:47;;;;;;;;;0.00;0.00;;;;;18.62;59.18;101909.69;5050371;28;45889;-66
2023/09/24 11:14:19;;;;;;;;;2.75;2.75;;;;;18.77;58.44;101932.44;5050775;28;45859;-65
2023/09/24 11:16:45;;;;;;;;;3.00;3.00;;;;;18.79;57.87;101917.00;5048380;28;45709;-64
2023/09/24 11:19:10;;;;;;;;;2.00;1.75;;;;;18.80;57.72;101907.09;5030979;28;45394;-64
2023/09/24 11:21:35;;;;;;;;;2.25;1.75;;;;;18.89;57.63;101917.47;5047124;28;46204;-64
2023/09/24 11:24:16;;;;;;;;;1.75;1.75;;;;;18.96;57.29;101909.94;5041818;28;45734;-64